Aviation Digital Data Service (ADDS)

Output produced by TAFs form (1855 UTC 13 December 2017)
found at http://aviationweather.gov/adds/tafs/
 
KGJT 131742Z 1318/1418 10007KT P6SM BKN120 
     FM131900 32006KT P6SM FEW150 SCT250 
     FM140200 33004KT P6SM BKN110 BKN150 
     FM140600 03008KT P6SM BKN060 BKN080